createdAt,value
2022-12-19T00:00:25.604Z,20.47
2022-12-19T00:02:53.786Z,20.10
2022-12-19T00:05:23.493Z,21.00
2022-12-19T00:07:54.691Z,20.33
2022-12-19T00:10:22.677Z,19.27
2022-12-19T00:12:50.596Z,18.67
2022-12-19T00:15:18.771Z,20.83
2022-12-19T00:17:46.665Z,20.70
2022-12-19T00:20:15.293Z,20.53
2022-12-19T00:22:46.647Z,21.67
2022-12-19T00:25:14.614Z,17.80
2022-12-19T00:27:43.877Z,19.43
2022-12-19T00:30:12.675Z,21.13
2022-12-19T00:32:40.784Z,20.37
2022-12-19T00:35:08.910Z,19.20
2022-12-19T00:37:36.850Z,20.13
2022-12-19T00:40:10.103Z,19.20
2022-12-19T00:42:37.886Z,19.23
2022-12-19T00:45:05.947Z,18.90
2022-12-19T00:47:34.009Z,20.53
2022-12-19T00:50:01.793Z,18.70
2022-12-19T00:52:29.869Z,19.50
2022-12-19T00:54:59.950Z,19.33
2022-12-19T00:57:27.773Z,20.80
2022-12-19T00:59:55.706Z,19.93
2022-12-19T01:02:23.647Z,18.07
2022-12-19T01:04:51.658Z,19.67
2022-12-19T01:07:19.557Z,20.30
2022-12-19T01:09:47.485Z,21.13
2022-12-19T01:12:35.179Z,19.50
2022-12-19T01:15:04.496Z,19.93
2022-12-19T01:17:44.328Z,19.60
2022-12-19T01:20:13.228Z,20.77
2022-12-19T01:22:41.156Z,20.67
2022-12-19T01:25:09.089Z,19.83
2022-12-19T01:27:37.010Z,20.37
2022-12-19T01:30:05.901Z,20.70
2022-12-19T01:32:37.497Z,20.03
2022-12-19T01:35:05.604Z,21.07
2022-12-19T01:37:33.430Z,19.57
2022-12-19T01:40:01.211Z,17.80
2022-12-19T01:42:36.473Z,19.67
2022-12-19T01:45:13.622Z,19.90
2022-12-19T01:47:47.526Z,18.13
2022-12-19T01:50:27.541Z,20.23
2022-12-19T01:52:55.513Z,19.17
2022-12-19T01:55:23.428Z,18.83
2022-12-19T01:57:51.183Z,19.47
2022-12-19T02:00:19.070Z,18.63
2022-12-19T02:02:58.425Z,19.43
2022-12-19T02:05:26.476Z,18.47
2022-12-19T02:07:54.507Z,19.70
2022-12-19T02:10:22.472Z,19.10
2022-12-19T02:12:50.365Z,19.47
2022-12-19T02:15:18.318Z,18.93
2022-12-19T02:17:55.861Z,20.10
2022-12-19T02:20:54.223Z,19.60
2022-12-19T02:23:29.785Z,17.37
2022-12-19T02:26:19.415Z,20.00
2022-12-19T02:28:58.782Z,18.23
2022-12-19T02:31:32.745Z,19.20
2022-12-19T02:34:19.000Z,21.00
2022-12-19T02:37:00.800Z,19.57
2022-12-19T02:40:06.924Z,19.10
2022-12-19T02:42:40.456Z,19.17
2022-12-19T02:45:09.567Z,18.63
2022-12-19T02:47:37.374Z,18.00
2022-12-19T02:50:06.113Z,19.80
2022-12-19T02:52:33.807Z,19.03
2022-12-19T02:55:12.427Z,18.93
2022-12-19T02:58:07.143Z,19.10
2022-12-19T03:00:36.522Z,18.40
2022-12-19T03:03:23.099Z,18.03
2022-12-19T03:06:06.079Z,17.90
2022-12-19T03:08:38.808Z,19.33
2022-12-19T03:11:14.696Z,19.00
2022-12-19T03:14:08.623Z,18.83
2022-12-19T03:16:37.805Z,18.13
2022-12-19T03:19:06.399Z,17.73
2022-12-19T03:21:45.102Z,18.17
2022-12-19T03:24:13.454Z,20.40
2022-12-19T03:27:03.777Z,18.60
2022-12-19T03:30:01.814Z,18.47
2022-12-19T03:32:30.167Z,18.67
2022-12-19T03:35:17.291Z,18.07
2022-12-19T03:37:45.147Z,17.50
2022-12-19T03:40:15.743Z,18.07
2022-12-19T03:43:02.126Z,19.30
2022-12-19T03:45:49.584Z,18.50
2022-12-19T03:48:25.399Z,18.27
2022-12-19T03:51:14.459Z,18.37
2022-12-19T03:54:07.637Z,17.50
2022-12-19T03:56:52.381Z,17.97
2022-12-19T03:59:43.006Z,18.90
2022-12-19T04:02:11.202Z,18.40
2022-12-19T04:04:41.715Z,19.43
2022-12-19T04:07:09.654Z,18.67
2022-12-19T04:09:38.181Z,18.17
2022-12-19T04:12:07.861Z,18.47
2022-12-19T04:14:36.974Z,19.17
2022-12-19T04:17:32.561Z,17.07
2022-12-19T04:20:07.347Z,16.60
2022-12-19T04:22:45.156Z,17.67
2022-12-19T04:25:15.364Z,17.80
2022-12-19T04:27:49.767Z,19.17
2022-12-19T04:30:18.587Z,16.57
2022-12-19T04:32:46.707Z,18.77
2022-12-19T04:35:14.790Z,17.90
2022-12-19T04:37:42.704Z,17.60
2022-12-19T04:40:11.280Z,17.63
2022-12-19T04:42:39.071Z,17.57
2022-12-19T04:45:07.448Z,17.97
2022-12-19T04:47:35.364Z,18.43
2022-12-19T04:50:03.222Z,17.97
2022-12-19T04:52:31.088Z,18.47
2022-12-19T04:54:58.887Z,18.00
2022-12-19T04:57:26.802Z,18.23
2022-12-19T04:59:54.668Z,18.90
2022-12-19T05:02:22.582Z,18.67
2022-12-19T05:04:50.797Z,16.43
2022-12-19T05:07:21.454Z,17.23
2022-12-19T05:09:50.055Z,16.97
2022-12-19T05:12:17.869Z,18.43
2022-12-19T05:14:46.005Z,17.50
2022-12-19T05:17:13.840Z,18.87
2022-12-19T05:19:41.806Z,18.23
2022-12-19T05:22:09.847Z,17.97
2022-12-19T05:24:37.764Z,19.20
2022-12-19T05:27:05.637Z,20.23
2022-12-19T05:29:33.467Z,20.00
2022-12-19T05:32:01.520Z,19.00
2022-12-19T05:34:29.537Z,20.67
2022-12-19T05:36:57.382Z,20.70
2022-12-19T05:39:25.802Z,19.40
2022-12-19T05:42:12.484Z,20.07
2022-12-19T05:44:40.737Z,20.60
2022-12-19T05:47:08.558Z,20.03
2022-12-19T05:49:36.344Z,19.77
2022-12-19T05:52:04.288Z,21.07
2022-12-19T05:54:32.364Z,19.67
2022-12-19T05:57:00.171Z,19.97
2022-12-19T05:59:28.401Z,21.40
2022-12-19T06:01:56.881Z,19.43
2022-12-19T06:04:25.242Z,20.23
2022-12-19T06:06:53.131Z,18.63
2022-12-19T06:09:21.192Z,19.73
2022-12-19T06:11:49.374Z,18.57
2022-12-19T06:14:17.236Z,19.93
2022-12-19T06:16:45.174Z,19.87
2022-12-19T06:19:13.048Z,20.43
2022-12-19T06:21:47.986Z,19.90
2022-12-19T06:24:16.576Z,18.90
2022-12-19T06:26:44.935Z,21.07
2022-12-19T06:29:12.926Z,22.40
2022-12-19T06:31:40.706Z,19.47
2022-12-19T06:34:09.557Z,19.90
2022-12-19T06:36:37.694Z,20.93
2022-12-19T06:39:05.617Z,21.53
2022-12-19T06:41:51.911Z,22.10
2022-12-19T06:44:19.880Z,23.17
2022-12-19T06:46:47.704Z,22.93
2022-12-19T06:49:15.688Z,24.63
2022-12-19T06:51:43.772Z,22.57
2022-12-19T06:54:12.581Z,24.33
2022-12-19T06:56:41.553Z,23.13
2022-12-19T06:59:11.163Z,23.30
2022-12-19T07:01:55.406Z,22.93
2022-12-19T07:04:30.856Z,23.53
2022-12-19T07:06:58.884Z,23.53
2022-12-19T07:09:28.149Z,24.57
2022-12-19T07:11:56.205Z,25.83
2022-12-19T07:14:24.002Z,22.73
2022-12-19T07:16:52.126Z,22.67
2022-12-19T07:19:20.310Z,24.93
2022-12-19T07:21:48.304Z,24.17
2022-12-19T07:24:16.217Z,24.53
2022-12-19T07:26:44.336Z,23.70
2022-12-19T07:29:12.220Z,24.70
2022-12-19T07:31:40.117Z,24.23
2022-12-19T07:34:07.954Z,26.47
2022-12-19T07:36:36.075Z,25.77
2022-12-19T07:39:03.874Z,26.57
2022-12-19T07:41:31.638Z,26.03
2022-12-19T07:44:00.050Z,24.07
2022-12-19T07:46:30.864Z,25.13
2022-12-19T07:48:58.596Z,25.03
2022-12-19T07:51:27.563Z,24.27
2022-12-19T07:53:55.412Z,24.07
2022-12-19T07:56:23.253Z,26.60
2022-12-19T07:58:51.719Z,24.93
2022-12-19T08:01:19.678Z,23.57
2022-12-19T08:03:47.757Z,24.97
2022-12-19T08:06:15.691Z,27.07
2022-12-19T08:08:43.675Z,23.57
2022-12-19T08:11:14.187Z,25.53
2022-12-19T08:13:46.521Z,24.70
2022-12-19T08:16:15.088Z,23.83
2022-12-19T08:18:43.199Z,23.20
2022-12-19T08:21:11.549Z,23.57
2022-12-19T08:23:42.364Z,23.53
2022-12-19T08:26:13.431Z,22.63
2022-12-19T08:28:41.879Z,24.77
2022-12-19T08:31:15.197Z,23.17
2022-12-19T08:33:43.118Z,22.53
2022-12-19T08:36:17.404Z,22.83
2022-12-19T08:38:45.159Z,22.13
2022-12-19T08:41:13.039Z,23.60
2022-12-19T08:43:40.848Z,24.53
2022-12-19T08:46:08.965Z,25.23
2022-12-19T08:48:37.097Z,24.60
2022-12-19T08:51:07.400Z,23.63
2022-12-19T08:53:36.814Z,26.27
2022-12-19T08:56:09.459Z,24.40
2022-12-19T08:58:37.320Z,22.50
2022-12-19T09:01:07.384Z,24.77
2022-12-19T09:03:43.468Z,25.77
2022-12-19T09:06:23.468Z,28.00
2022-12-19T09:08:51.224Z,25.50
2022-12-19T09:11:20.677Z,26.70
2022-12-19T09:13:49.115Z,24.07
2022-12-19T09:16:21.175Z,24.90
2022-12-19T09:18:50.740Z,25.77
2022-12-19T09:21:19.426Z,23.93
2022-12-19T09:23:51.502Z,24.17
2022-12-19T09:26:20.058Z,24.50
2022-12-19T09:28:48.944Z,24.20
2022-12-19T09:31:18.789Z,26.53
2022-12-19T09:33:46.691Z,24.60
2022-12-19T09:36:22.306Z,24.20
2022-12-19T09:38:50.504Z,24.20
2022-12-19T09:41:44.264Z,24.13
2022-12-19T09:44:29.147Z,23.27
2022-12-19T09:47:02.203Z,23.40
2022-12-19T09:49:41.703Z,24.33
2022-12-19T09:52:19.710Z,25.93
2022-12-19T09:54:59.695Z,24.60
2022-12-19T09:57:33.267Z,23.60
2022-12-19T10:00:08.101Z,25.53
2022-12-19T10:02:54.291Z,23.87
2022-12-19T10:07:11.442Z,24.47
2022-12-19T10:08:35.050Z,24.80
2022-12-19T10:12:39.486Z,24.27
2022-12-19T10:14:12.700Z,24.90
2022-12-19T10:17:23.796Z,25.10
2022-12-19T10:20:16.649Z,28.27
2022-12-19T10:23:03.006Z,25.43
2022-12-19T10:25:40.432Z,26.30
2022-12-19T10:28:31.419Z,25.23
2022-12-19T10:31:01.511Z,26.07
2022-12-19T10:33:38.904Z,25.27
2022-12-19T10:36:10.028Z,24.13
2022-12-19T10:39:33.086Z,25.50
2022-12-19T10:42:09.228Z,24.27
2022-12-19T10:44:37.268Z,23.83
2022-12-19T10:47:05.069Z,26.77
2022-12-19T10:49:32.994Z,26.43
2022-12-19T10:52:05.154Z,27.73
2022-12-19T10:54:42.957Z,26.90
2022-12-19T10:57:21.204Z,25.17
2022-12-19T11:00:06.706Z,24.30
2022-12-19T11:02:44.695Z,26.77
2022-12-19T11:05:40.110Z,25.37
2022-12-19T11:08:07.828Z,24.37
2022-12-19T11:12:42.262Z,25.53
2022-12-19T11:16:26.733Z,25.37
2022-12-19T11:19:13.645Z,24.53
2022-12-19T11:29:15.712Z,43.40
2022-12-19T11:30:44.326Z,24.00
2022-12-19T11:30:45.890Z,26.37
2022-12-19T11:30:47.663Z,25.97
2022-12-19T11:31:44.162Z,24.33
2022-12-19T11:33:32.902Z,23.17
2022-12-19T11:36:01.853Z,24.73
2022-12-19T11:38:38.915Z,25.37
2022-12-19T11:41:14.111Z,24.03
2022-12-19T11:43:46.130Z,24.23
2022-12-19T11:46:22.123Z,26.03
2022-12-19T11:48:59.064Z,24.50
2022-12-19T11:51:36.030Z,24.67
2022-12-19T11:54:11.004Z,24.27
2022-12-19T11:56:39.295Z,23.97
2022-12-19T11:59:21.835Z,23.47
2022-12-19T12:02:24.989Z,25.97
2022-12-19T12:05:32.702Z,25.40
2022-12-19T12:10:59.125Z,24.37
2022-12-19T12:18:11.894Z,23.87
2022-12-19T12:20:08.660Z,23.73
2022-12-19T12:30:59.687Z,23.93
2022-12-19T12:31:23.723Z,23.87
2022-12-19T12:31:42.782Z,23.63
2022-12-19T12:31:44.954Z,23.30
2022-12-19T12:31:49.442Z,22.73
2022-12-19T12:35:43.571Z,23.47
2022-12-19T12:41:49.832Z,23.93
2022-12-19T12:44:18.029Z,23.93
2022-12-19T12:47:40.333Z,25.40
2022-12-19T12:50:09.631Z,25.30
2022-12-19T12:52:45.264Z,23.00
2022-12-19T12:55:23.285Z,25.77
2022-12-19T12:57:51.122Z,25.77
2022-12-19T13:00:30.117Z,25.53
2022-12-19T13:03:04.952Z,23.70
2022-12-19T13:05:36.718Z,25.37
2022-12-19T13:08:33.247Z,25.30
2022-12-19T13:11:03.380Z,25.03
2022-12-19T13:13:51.770Z,24.00
2022-12-19T13:16:44.092Z,23.50
2022-12-19T13:19:28.708Z,23.57
2022-12-19T13:22:06.291Z,24.10
2022-12-19T13:24:53.495Z,24.83
2022-12-19T13:27:21.208Z,23.77
2022-12-19T13:30:15.979Z,24.67
2022-12-19T13:32:43.799Z,25.57
2022-12-19T13:36:33.306Z,23.73
2022-12-19T13:39:55.291Z,24.33
2022-12-19T13:41:47.826Z,23.37
2022-12-19T13:44:15.799Z,25.00
2022-12-19T13:46:44.429Z,24.97
2022-12-19T13:49:31.752Z,24.87
2022-12-19T13:52:03.529Z,26.73
2022-12-19T13:54:35.804Z,24.43
2022-12-19T13:57:09.012Z,24.27
2022-12-19T13:59:38.853Z,23.90
2022-12-19T14:02:19.421Z,24.53
2022-12-19T14:04:47.335Z,25.03
2022-12-19T14:07:36.421Z,24.13
2022-12-19T14:11:40.203Z,24.67
2022-12-19T14:13:53.789Z,24.20
2022-12-19T14:16:01.382Z,23.67
2022-12-19T14:18:44.351Z,24.83
2022-12-19T14:22:05.900Z,23.63
2022-12-19T14:24:20.673Z,40.40
2022-12-19T14:28:18.860Z,24.30
2022-12-19T14:30:32.197Z,21.57
2022-12-19T14:33:46.476Z,24.60
2022-12-19T14:36:10.400Z,25.23
2022-12-19T14:39:23.899Z,24.60
2022-12-19T14:42:01.740Z,23.43
2022-12-19T14:52:08.423Z,23.60
2022-12-19T14:54:16.319Z,22.57
2022-12-19T14:54:18.686Z,23.20
2022-12-19T14:54:52.426Z,24.63
2022-12-19T14:56:52.089Z,22.63
2022-12-19T14:59:19.976Z,24.80
2022-12-19T15:02:12.992Z,22.83
2022-12-19T15:05:00.464Z,22.30
2022-12-19T15:07:29.694Z,23.50
2022-12-19T15:11:09.296Z,23.17
2022-12-19T15:14:52.681Z,22.97
2022-12-19T15:16:35.749Z,23.53
2022-12-19T15:19:03.942Z,23.90
2022-12-19T15:21:31.819Z,22.60
2022-12-19T15:23:59.584Z,24.07
2022-12-19T15:26:32.203Z,24.50
2022-12-19T15:29:00.170Z,22.90
2022-12-19T15:31:37.659Z,23.37
2022-12-19T15:34:46.649Z,22.37
2022-12-19T15:37:15.780Z,24.27
2022-12-19T15:39:44.130Z,23.90
2022-12-19T15:42:25.083Z,25.53
2022-12-19T15:44:53.390Z,24.60
2022-12-19T15:47:34.956Z,24.80
2022-12-19T15:50:07.946Z,24.37
2022-12-19T15:52:35.775Z,24.17
2022-12-19T15:55:03.557Z,25.40
2022-12-19T15:57:39.211Z,23.97
2022-12-19T16:00:18.143Z,25.07
2022-12-19T16:05:34.000Z,24.97
2022-12-19T16:08:01.828Z,24.17
2022-12-19T16:10:29.706Z,24.53
2022-12-19T16:12:58.048Z,23.93
2022-12-19T16:15:28.558Z,23.40
2022-12-19T16:17:56.763Z,24.77
2022-12-19T16:20:26.619Z,24.73
2022-12-19T16:22:54.589Z,23.87
2022-12-19T16:25:22.641Z,22.17
2022-12-19T16:27:55.043Z,22.60
2022-12-19T16:30:30.273Z,24.27
2022-12-19T16:32:58.254Z,24.27
2022-12-19T16:36:01.706Z,23.57
2022-12-19T16:38:15.679Z,21.63
2022-12-19T16:40:43.920Z,22.07
2022-12-19T16:43:16.586Z,24.10
2022-12-19T16:45:45.565Z,22.70
2022-12-19T16:48:21.559Z,22.07
2022-12-19T16:50:49.501Z,25.00
2022-12-19T16:53:17.681Z,24.00
2022-12-19T16:55:45.685Z,24.00
2022-12-19T16:58:21.840Z,24.63
2022-12-19T17:00:50.237Z,25.63
2022-12-19T17:03:42.122Z,24.43
2022-12-19T17:06:14.698Z,23.20
2022-12-19T17:08:42.796Z,23.50
2022-12-19T17:11:25.872Z,22.83
2022-12-19T17:14:01.984Z,21.90
2022-12-19T17:16:30.308Z,27.40
2022-12-19T17:18:59.116Z,22.07
2022-12-19T17:21:26.945Z,21.60
2022-12-19T17:23:54.844Z,20.80
2022-12-19T17:26:22.896Z,21.43
2022-12-19T17:28:50.876Z,22.67
2022-12-19T17:31:25.217Z,22.23
2022-12-19T17:33:53.289Z,23.40
2022-12-19T17:36:25.387Z,24.87
2022-12-19T17:38:54.672Z,22.80
2022-12-19T17:41:22.566Z,22.30
2022-12-19T17:43:50.525Z,22.93
2022-12-19T17:46:22.509Z,21.57
2022-12-19T17:48:52.518Z,21.37
2022-12-19T17:51:21.211Z,31.93
2022-12-19T17:53:49.037Z,23.27
2022-12-19T17:56:17.999Z,21.53
2022-12-19T17:58:45.890Z,22.73
2022-12-19T18:01:23.751Z,21.27
2022-12-19T18:03:52.442Z,21.37
2022-12-19T18:06:20.449Z,21.23
2022-12-19T18:08:48.436Z,22.43
2022-12-19T18:11:20.137Z,21.93
2022-12-19T18:13:50.488Z,21.73
2022-12-19T18:16:21.981Z,23.03
2022-12-19T18:18:49.751Z,20.57
2022-12-19T18:21:19.174Z,23.43
2022-12-19T18:23:47.537Z,21.77
2022-12-19T18:26:15.456Z,20.47
2022-12-19T18:28:43.505Z,22.60
2022-12-19T18:31:19.336Z,23.47
2022-12-19T18:33:48.155Z,21.80
2022-12-19T18:36:21.127Z,22.47
2022-12-19T18:38:50.028Z,23.23
2022-12-19T18:41:18.524Z,25.27
2022-12-19T18:43:46.727Z,25.87
2022-12-19T18:46:18.448Z,25.73
2022-12-19T18:48:46.652Z,26.33
2022-12-19T18:51:17.911Z,22.33
2022-12-19T18:53:46.168Z,23.63
2022-12-19T18:56:14.259Z,23.37
2022-12-19T18:58:42.238Z,22.43
2022-12-19T19:01:20.335Z,22.40
2022-12-19T19:03:56.497Z,22.50
2022-12-19T19:06:26.962Z,21.77
2022-12-19T19:08:54.904Z,21.93
2022-12-19T19:11:24.522Z,22.50
2022-12-19T19:13:52.913Z,21.10
2022-12-19T19:16:26.244Z,23.07
2022-12-19T19:18:55.790Z,24.63
2022-12-19T19:21:31.346Z,25.60
2022-12-19T19:24:10.061Z,25.50
2022-12-19T19:26:37.974Z,25.67
2022-12-19T19:29:06.261Z,24.60
2022-12-19T19:31:35.703Z,23.73
2022-12-19T19:34:15.779Z,23.73
2022-12-19T19:36:44.940Z,21.73
2022-12-19T19:39:12.833Z,22.87
2022-12-19T19:41:40.725Z,22.67
2022-12-19T19:44:08.675Z,24.87
2022-12-19T19:46:42.971Z,25.17
2022-12-19T19:49:10.883Z,25.60
2022-12-19T19:51:38.663Z,24.07
2022-12-19T19:54:06.599Z,25.10
2022-12-19T19:56:34.439Z,25.53
2022-12-19T19:59:02.289Z,23.30
2022-12-19T20:01:30.366Z,24.77
2022-12-19T20:03:58.303Z,24.93
2022-12-19T20:06:26.258Z,24.47
2022-12-19T20:08:54.057Z,24.07
2022-12-19T20:11:22.208Z,22.97
2022-12-19T20:13:50.166Z,23.47
2022-12-19T20:16:19.203Z,25.73
2022-12-19T20:18:51.783Z,24.93
2022-12-19T20:21:20.885Z,27.93
2022-12-19T20:23:48.785Z,28.97
2022-12-19T20:26:17.601Z,27.93
2022-12-19T20:28:50.096Z,27.67
2022-12-19T20:31:27.505Z,24.37
2022-12-19T20:33:56.224Z,23.30
2022-12-19T20:36:24.341Z,23.23
2022-12-19T20:38:52.791Z,21.03
2022-12-19T20:41:20.666Z,21.93
2022-12-19T20:43:49.384Z,22.80
2022-12-19T20:46:19.016Z,22.03
2022-12-19T20:48:47.204Z,25.20
2022-12-19T20:51:15.342Z,23.60
2022-12-19T20:53:43.328Z,24.87
2022-12-19T20:56:14.237Z,21.80
2022-12-19T20:58:42.137Z,22.83
2022-12-19T21:01:09.955Z,24.10
2022-12-19T21:03:38.397Z,22.80
2022-12-19T21:06:06.675Z,23.00
2022-12-19T21:08:34.716Z,23.00
2022-12-19T21:11:03.383Z,23.57
2022-12-19T21:13:31.359Z,24.40
2022-12-19T21:16:01.002Z,23.47
2022-12-19T21:18:29.443Z,26.70
2022-12-19T21:20:57.390Z,26.60
2022-12-19T21:23:26.470Z,25.13
2022-12-19T21:25:54.435Z,26.57
2022-12-19T21:28:22.529Z,25.13
2022-12-19T21:31:03.502Z,28.37
2022-12-19T21:33:31.446Z,29.10
2022-12-19T21:35:59.304Z,29.30
2022-12-19T21:38:27.324Z,25.83
2022-12-19T21:40:55.280Z,27.17
2022-12-19T21:43:23.284Z,26.87
2022-12-19T21:45:51.556Z,26.27
2022-12-19T21:48:19.673Z,26.03
2022-12-19T21:50:47.883Z,27.17
2022-12-19T21:53:15.742Z,25.90
2022-12-19T21:55:43.730Z,25.63
2022-12-19T21:58:11.633Z,25.57
2022-12-19T22:00:39.547Z,27.13
2022-12-19T22:03:15.693Z,24.73
2022-12-19T22:05:43.706Z,26.90
2022-12-19T22:08:12.003Z,24.83
2022-12-19T22:10:40.957Z,24.60
2022-12-19T22:13:08.846Z,23.27
2022-12-19T22:15:37.706Z,28.70
2022-12-19T22:18:05.658Z,27.53
2022-12-19T22:20:33.451Z,27.03
2022-12-19T22:23:01.380Z,27.67
2022-12-19T22:25:29.153Z,26.30
2022-12-19T22:27:57.317Z,26.23
2022-12-19T22:30:25.165Z,27.17
2022-12-19T22:32:53.360Z,26.53
2022-12-19T22:35:21.266Z,26.33
2022-12-19T22:37:49.141Z,26.83
2022-12-19T22:40:17.056Z,26.27
2022-12-19T22:42:44.931Z,27.07
2022-12-19T22:45:13.220Z,30.47
2022-12-19T22:47:44.140Z,27.30
2022-12-19T22:50:12.105Z,27.53
2022-12-19T22:52:40.529Z,25.90
2022-12-19T22:55:08.650Z,26.60
2022-12-19T22:57:36.623Z,26.13
2022-12-19T23:00:06.963Z,23.70
2022-12-19T23:02:34.976Z,25.13
2022-12-19T23:05:02.853Z,26.37
2022-12-19T23:07:30.811Z,26.23
2022-12-19T23:09:58.638Z,27.00
2022-12-19T23:12:26.547Z,23.60
2022-12-19T23:14:54.550Z,24.60
2022-12-19T23:17:22.381Z,25.83
2022-12-19T23:19:50.149Z,26.27
2022-12-19T23:22:17.956Z,25.60
2022-12-19T23:24:46.138Z,25.63
2022-12-19T23:27:14.011Z,26.10
2022-12-19T23:29:43.640Z,25.73
2022-12-19T23:32:11.874Z,26.27
2022-12-19T23:34:39.854Z,26.43
2022-12-19T23:37:11.790Z,25.97
2022-12-19T23:39:40.183Z,23.47
2022-12-19T23:42:08.005Z,24.70
2022-12-19T23:44:36.013Z,24.93
2022-12-19T23:47:04.347Z,24.13
2022-12-19T23:49:33.509Z,24.50
2022-12-19T23:52:01.417Z,27.43
2022-12-19T23:54:29.235Z,25.77
2022-12-19T23:56:57.072Z,27.77
2022-12-19T23:59:25.016Z,23.83
